Time;durP1;ratioP1;P1;durP2;ratioP2;P2;SDS_P1;SDS_P2;PMS_P1;PMS_P2;Temp;Humidity;BMP_temperature;BMP_pressure;BME280_temperature;BME280_humidity;BME280_pressure;Samples;Min_cycle;Max_cycle;Signal;HPM_P1;HPM_P2
2021/12/11 12:52:03;;;;;;;23.60;7.10;;;;;;;5.97;100.00;101579.09;5243745;27;20358;-72
2021/12/11 12:54:35;;;;;;;21.87;8.63;;;;;;;6.02;100.00;101570.22;5244437;27;20442;-72
2021/12/11 12:57:16;;;;;;;29.33;9.90;;;;;;;6.11;100.00;101582.16;5243037;27;20021;-74
2021/12/11 13:00:02;;;;;;;25.07;7.10;;;;;;;6.15;100.00;101582.91;5243926;27;20515;-73
2021/12/11 13:02:36;;;;;;;20.93;6.47;;;;;;;6.15;100.00;101583.78;5240277;27;20435;-74
2021/12/11 13:05:24;;;;;;;26.55;7.10;;;;;;;6.28;99.69;101599.88;5228423;27;20032;-73
2021/12/11 13:07:59;;;;;;;18.13;6.20;;;;;;;6.26;99.89;101596.47;5243764;27;20782;-73
2021/12/11 13:10:36;;;;;;;29.27;6.40;;;;;;;6.28;100.00;101609.44;5243351;27;20029;-73
2021/12/11 13:13:09;;;;;;;18.63;5.87;;;;;;;6.31;99.69;101611.09;5243063;27;20032;-72
2021/12/11 13:15:45;;;;;;;21.53;7.17;;;;;;;6.29;98.87;101601.59;5243687;27;20055;-72
2021/12/11 13:18:20;;;;;;;17.47;7.40;;;;;;;6.39;99.03;101612.56;5244296;27;20021;-71
2021/12/11 13:21:06;;;;;;;26.23;7.43;;;;;;;6.40;99.66;101618.63;5241626;27;20037;-72
2021/12/11 13:23:40;;;;;;;20.67;6.73;;;;;;;6.34;98.63;101592.78;5243987;27;20456;-71
2021/12/11 13:26:16;;;;;;;21.20;7.45;;;;;;;6.45;99.14;101615.88;5244274;27;20052;-71
2021/12/11 13:28:54;;;;;;;23.10;6.57;;;;;;;6.44;99.23;101622.81;5242896;27;20040;-71
2021/12/11 13:31:31;;;;;;;26.50;8.30;;;;;;;6.45;99.65;101627.16;5257556;27;20032;-70
2021/12/11 13:34:05;;;;;;;17.93;8.07;;;;;;;6.43;99.87;101628.06;5244231;27;20108;-73
2021/12/11 13:36:36;;;;;;;28.10;9.30;;;;;;;6.50;99.83;101634.81;5242425;27;20157;-74
2021/12/11 13:39:12;;;;;;;20.53;7.33;;;;;;;6.48;99.18;101636.59;5243698;27;20062;-76
2021/12/11 13:41:48;;;;;;;20.63;7.47;;;;;;;6.50;99.06;101632.22;5243621;27;20040;-75
2021/12/11 13:44:20;;;;;;;24.40;8.53;;;;;;;6.60;99.15;101643.19;5243096;27;20029;-77
2021/12/11 13:46:51;;;;;;;27.70;8.10;;;;;;;6.54;99.27;101632.06;5244103;27;20026;-76
2021/12/11 13:49:23;;;;;;;18.30;6.90;;;;;;;6.50;98.73;101630.47;5242686;27;20036;-72
2021/12/11 13:51:55;;;;;;;18.87;6.57;;;;;;;6.52;98.00;101628.69;5235866;27;20060;-74
2021/12/11 13:54:27;;;;;;;20.13;7.83;;;;;;;6.57;98.17;101628.53;5239636;27;20029;-76
2021/12/11 13:57:05;;;;;;;26.30;7.17;;;;;;;6.64;98.16;101643.06;5254847;27;20829;-76
2021/12/11 13:59:37;;;;;;;24.90;7.37;;;;;;;6.66;97.58;101645.63;5237705;28;20581;-71
2021/12/11 14:02:10;;;;;;;16.90;9.30;;;;;;;6.61;96.88;101647.50;5220687;27;20090;-70
2021/12/11 14:04:42;;;;;;;22.37;10.67;;;;;;;6.62;97.14;101638.78;5235511;28;20538;-70
2021/12/11 14:07:16;;;;;;;24.73;11.47;;;;;;;6.70;97.48;101662.88;5228388;28;20113;-70
2021/12/11 14:10:03;;;;;;;23.33;9.85;;;;;;;6.61;97.05;101663.13;5218215;28;20033;-70
2021/12/11 14:12:36;;;;;;;18.60;9.40;;;;;;;6.53;97.10;101664.19;5217499;28;20133;-70
2021/12/11 14:15:08;;;;;;;23.03;8.33;;;;;;;6.48;97.12;101653.06;5217399;28;20061;-71
2021/12/11 14:17:39;;;;;;;26.27;11.40;;;;;;;6.51;97.24;101666.00;5217865;28;20506;-70
2021/12/11 14:20:13;;;;;;;21.53;6.97;;;;;;;6.63;95.90;101666.53;5216687;28;20071;-70
2021/12/11 14:22:45;;;;;;;19.15;7.32;;;;;;;6.50;96.29;101676.44;5216118;28;20421;-70
2021/12/11 14:25:20;;;;;;;22.20;7.20;;;;;;;6.53;94.70;101674.63;5217572;27;20159;-69
2021/12/11 14:27:52;;;;;;;14.40;5.23;;;;;;;6.53;93.82;101669.41;5219200;28;20033;-73
2021/12/11 14:30:24;;;;;;;22.70;6.20;;;;;;;6.49;94.14;101680.78;5228505;28;20076;-73
2021/12/11 14:32:55;;;;;;;19.43;5.77;;;;;;;6.43;93.06;101675.78;5228834;28;20667;-73
2021/12/11 14:35:30;;;;;;;22.83;6.60;;;;;;;6.26;94.57;101684.94;5227003;28;20034;-71
2021/12/11 14:38:06;;;;;;;21.40;6.53;;;;;;;6.42;93.71;101694.91;5227256;28;20026;-71
2021/12/11 14:40:40;;;;;;;11.97;5.47;;;;;;;6.37;93.35;101702.81;5227830;28;20030;-70
2021/12/11 14:43:14;;;;;;;17.50;5.63;;;;;;;6.32;93.88;101694.28;5228076;28;20039;-70
2021/12/11 14:45:47;;;;;;;16.00;6.32;;;;;;;6.36;94.76;101695.06;5228593;28;20021;-71
2021/12/11 14:48:19;;;;;;;15.37;5.87;;;;;;;6.37;93.70;101702.81;5227378;28;20057;-73
2021/12/11 14:50:55;;;;;;;17.63;6.20;;;;;;;6.21;94.41;101694.63;5226791;28;20057;-71
2021/12/11 14:53:33;;;;;;;15.50;4.97;;;;;;;6.28;92.73;101711.72;5227970;28;20034;-71
2021/12/11 14:56:12;;;;;;;19.53;6.57;;;;;;;6.29;94.11;101726.47;5227987;28;20025;-71
2021/12/11 14:58:45;;;;;;;16.00;4.73;;;;;;;6.17;93.39;101711.19;5227930;28;20086;-71
2021/12/11 15:01:25;;;;;;;19.07;6.50;;;;;;;6.20;93.75;101737.09;5228862;28;20036;-71
2021/12/11 15:03:59;;;;;;;15.03;5.23;;;;;;;6.12;93.42;101739.06;5227802;27;20033;-71
2021/12/11 15:06:30;;;;;;;15.70;5.67;;;;;;;6.08;92.81;101732.22;5226701;28;20041;-71
2021/12/11 15:09:04;;;;;;;20.50;6.33;;;;;;;5.97;93.43;101732.50;5228264;28;20308;-71
2021/12/11 15:11:38;;;;;;;20.38;4.85;;;;;;;6.01;93.46;101742.78;5228210;28;20124;-70
2021/12/11 15:14:14;;;;;;;12.15;4.32;;;;;;;5.98;92.76;101748.06;5227391;28;20112;-70
2021/12/11 15:16:51;;;;;;;26.00;5.63;;;;;;;5.97;93.05;101745.50;5226644;28;20468;-70
2021/12/11 15:19:22;;;;;;;18.30;5.47;;;;;;;5.89;93.65;101748.28;5227215;28;20022;-70
2021/12/11 15:21:53;;;;;;;18.13;6.90;;;;;;;5.83;93.24;101743.25;5227444;28;20034;-70
2021/12/11 15:24:25;;;;;;;14.23;4.97;;;;;;;5.76;93.65;101756.38;5228215;28;20029;-70
2021/12/11 15:26:56;;;;;;;15.77;4.93;;;;;;;5.84;93.56;101763.16;5226827;28;20124;-70
2021/12/11 15:29:30;;;;;;;20.70;6.30;;;;;;;5.74;92.97;101758.16;5227676;28;20030;-70
2021/12/11 15:32:04;;;;;;;13.45;4.57;;;;;;;5.77;93.22;101765.06;5227991;28;20833;-70
2021/12/11 15:34:35;;;;;;;15.90;5.47;;;;;;;5.79;93.51;101771.06;5226607;28;20475;-70
2021/12/11 15:37:10;;;;;;;17.30;6.13;;;;;;;5.76;93.54;101768.56;5226892;28;20028;-70
2021/12/11 15:39:45;;;;;;;18.63;5.70;;;;;;;5.71;93.05;101775.63;5227362;28;20358;-70
2021/12/11 15:42:18;;;;;;;14.97;5.13;;;;;;;5.56;93.43;101773.34;5227499;28;20026;-71
2021/12/11 15:44:54;;;;;;;17.87;6.77;;;;;;;5.52;94.02;101776.88;5227710;28;20064;-71
2021/12/11 15:47:28;;;;;;;11.57;5.30;;;;;;;5.43;93.87;101774.50;5227507;28;20021;-71
2021/12/11 15:50:00;;;;;;;18.67;7.53;;;;;;;5.40;93.94;101770.25;5226357;28;20057;-71
2021/12/11 15:52:31;;;;;;;12.93;6.30;;;;;;;5.36;94.13;101780.75;5227352;28;20033;-71
2021/12/11 15:55:06;;;;;;;20.77;7.40;;;;;;;5.13;94.13;101769.13;5227536;28;20022;-71
2021/12/11 15:57:37;;;;;;;15.02;5.65;;;;;;;5.17;94.34;101771.59;5226748;28;20438;-71
2021/12/11 16:00:09;;;;;;;19.63;5.20;;;;;;;5.14;94.06;101776.00;5226517;28;20038;-71
2021/12/11 16:02:41;;;;;;;19.77;5.70;;;;;;;5.16;94.34;101787.22;5227032;27;20064;-70
2021/12/11 16:05:13;;;;;;;14.00;5.43;;;;;;;4.89;93.98;101777.38;5226244;28;20108;-70
2021/12/11 16:07:47;;;;;;;12.60;5.00;;;;;;;4.84;94.26;101777.50;5226546;28;20037;-70
2021/12/11 16:10:20;;;;;;;14.77;5.23;;;;;;;4.82;93.58;101779.25;5220559;27;20046;-74
2021/12/11 16:12:51;;;;;;;14.07;5.43;;;;;;;4.74;94.28;101788.94;5224508;28;20041;-71
2021/12/11 16:15:30;;;;;;;15.27;5.20;;;;;;;5.01;94.16;101797.03;5216856;27;20032;-75
2021/12/11 16:18:03;;;;;;;13.03;6.03;;;;;;;4.81;95.65;101792.28;5216577;28;20030;-75
2021/12/11 16:20:44;;;;;;;14.83;5.30;;;;;;;4.97;95.03;101801.44;5215758;28;20026;-74
2021/12/11 16:23:20;;;;;;;17.50;6.53;;;;;;;4.89;94.61;101792.97;5226178;28;20032;-74
2021/12/11 16:25:51;;;;;;;14.27;5.77;;;;;;;4.83;93.95;101809.50;5225601;28;20065;-76
2021/12/11 16:28:23;;;;;;;15.73;4.90;;;;;;;4.65;94.21;101804.69;5226262;28;20125;-71
2021/12/11 16:30:57;;;;;;;14.03;5.97;;;;;;;4.89;94.21;101818.06;5226393;28;20045;-71
2021/12/11 16:33:29;;;;;;;17.00;7.20;;;;;;;4.70;95.61;101828.81;5226009;28;20662;-70
2021/12/11 16:36:02;;;;;;;15.50;5.73;;;;;;;4.74;94.74;101830.47;5225832;28;20488;-72
2021/12/11 16:38:39;;;;;;;18.10;7.67;;;;;;;4.76;95.11;101833.03;5226490;28;20033;-72
2021/12/11 16:41:29;;;;;;;24.17;6.87;;;;;;;4.56;95.31;101829.06;5225938;28;20468;-71
2021/12/11 16:44:05;;;;;;;16.67;6.93;;;;;;;4.69;94.80;101833.16;5223605;28;20406;-72
2021/12/11 16:46:42;;;;;;;14.20;6.90;;;;;;;4.60;94.92;101829.00;5225504;28;20021;-71
2021/12/11 16:49:14;;;;;;;13.07;6.47;;;;;;;4.50;94.46;101836.97;5227288;28;20091;-73
2021/12/11 16:51:49;;;;;;;13.00;5.07;;;;;;;4.57;93.78;101843.78;5225492;28;20672;-72
2021/12/11 16:54:24;;;;;;;17.90;6.43;;;;;;;4.54;94.61;101839.47;5224565;28;20038;-74
2021/12/11 16:56:56;;;;;;;19.20;7.00;;;;;;;4.47;94.95;101845.66;5227430;27;20502;-73
2021/12/11 16:59:27;;;;;;;18.43;7.57;;;;;;;4.44;94.88;101853.50;5225566;28;20079;-72
2021/12/11 17:01:59;;;;;;;18.40;7.67;;;;;;;4.50;94.86;101842.16;5226655;28;20059;-73
2021/12/11 17:04:30;;;;;;;19.57;7.67;;;;;;;4.60;95.30;101857.53;5226479;28;20512;-72
2021/12/11 17:07:07;;;;;;;20.97;7.60;;;;;;;4.39;95.66;101866.56;5226441;28;20029;-73
2021/12/11 17:09:41;;;;;;;26.23;9.20;;;;;;;4.52;95.92;101863.75;5226730;28;20025;-72
2021/12/11 17:12:19;;;;;;;26.38;10.02;;;;;;;4.50;95.55;101874.16;5224312;28;20049;-74
2021/12/11 17:14:56;;;;;;;24.17;9.83;;;;;;;4.70;95.88;101875.53;5227274;28;20594;-74
2021/12/11 17:17:30;;;;;;;18.73;9.23;;;;;;;4.66;95.63;101858.31;5225543;28;20033;-70
2021/12/11 17:20:07;;;;;;;20.60;9.70;;;;;;;4.58;95.56;101867.09;5225364;28;20526;-75
2021/12/11 17:22:42;;;;;;;26.40;11.27;;;;;;;4.54;95.53;101857.63;5225323;28;20482;-75
2021/12/11 17:25:20;;;;;;;25.13;11.80;;;;;;;4.53;96.80;101862.84;5226109;28;20030;-72
2021/12/11 17:28:00;;;;;;;22.23;10.70;;;;;;;4.65;96.33;101867.84;5224937;28;20027;-75
2021/12/11 17:30:31;;;;;;;21.60;10.97;;;;;;;4.63;96.46;101868.72;5226157;28;20170;-73
2021/12/11 17:33:04;;;;;;;20.60;11.13;;;;;;;4.64;95.93;101873.06;5226589;28;20053;-71
2021/12/11 17:35:36;;;;;;;20.20;12.00;;;;;;;4.65;96.04;101878.22;5224407;28;20065;-71
2021/12/11 17:38:09;;;;;;;28.27;12.50;;;;;;;4.70;95.63;101870.34;5227987;28;20029;-70
2021/12/11 17:40:42;;;;;;;22.87;11.97;;;;;;;4.67;95.78;101870.41;5229348;28;20064;-71
2021/12/11 17:43:14;;;;;;;21.37;11.63;;;;;;;4.66;95.90;101873.88;5229568;28;20079;-79
2021/12/11 17:45:47;;;;;;;26.07;11.33;;;;;;;4.62;95.59;101872.22;5230094;28;20029;-77
2021/12/11 17:48:18;;;;;;;21.87;11.97;;;;;;;4.66;95.25;101889.47;5229395;28;20499;-78
2021/12/11 17:50:54;;;;;;;25.67;12.13;;;;;;;4.69;95.42;101899.78;5229206;28;20050;-77
2021/12/11 17:53:26;;;;;;;32.00;12.97;;;;;;;4.66;95.97;101910.22;5229397;28;20033;-75
2021/12/11 17:55:58;;;;;;;33.07;13.50;;;;;;;4.64;95.64;101907.66;5229951;28;20125;-76
2021/12/11 17:58:35;;;;;;;24.33;11.63;;;;;;;4.57;96.28;101917.25;5229914;28;20494;-73
2021/12/11 18:01:19;;;;;;;24.07;11.63;;;;;;;4.63;96.08;101920.63;5230104;28;20026;-76
2021/12/11 18:03:56;;;;;;;27.40;12.37;;;;;;;4.62;95.92;101917.19;5228939;28;20037;-73
2021/12/11 18:06:28;;;;;;;25.07;11.73;;;;;;;4.54;96.26;101919.91;5227931;28;20295;-87
2021/12/11 18:09:00;;;;;;;30.17;12.03;;;;;;;4.53;96.57;101923.41;5230738;28;20029;-83
2021/12/11 18:11:46;;;;;;;29.13;13.40;;;;;;;4.59;96.18;101912.91;5229557;28;20163;-73
2021/12/11 18:14:47;;;;;;;28.30;11.77;;;;;;;4.57;95.91;101912.06;5229216;28;20503;-75
2021/12/11 18:17:23;;;;;;;23.20;11.63;;;;;;;4.54;95.98;101917.31;5223278;28;20022;-72
2021/12/11 18:20:20;;;;;;;29.43;12.50;;;;;;;4.54;95.87;101917.31;5221458;28;20077;-72
2021/12/11 18:22:51;;;;;;;30.13;13.50;;;;;;;4.51;95.97;101925.16;5228858;28;20046;-70
2021/12/11 18:25:25;;;;;;;23.60;12.23;;;;;;;4.49;95.83;101919.13;5229202;28;20083;-71
2021/12/11 18:27:57;;;;;;;27.70;13.37;;;;;;;4.44;96.34;101926.13;5229801;28;20030;-73
2021/12/11 18:30:32;;;;;;;25.13;11.73;;;;;;;4.47;96.27;101928.66;5228818;28;20025;-72
2021/12/11 18:33:03;;;;;;;26.47;13.50;;;;;;;4.41;96.32;101941.75;5229362;28;20040;-71
2021/12/11 18:35:42;;;;;;;29.47;12.43;;;;;;;4.41;96.49;101941.75;5228165;28;20034;-71
2021/12/11 18:38:15;;;;;;;25.80;12.37;;;;;;;4.38;96.83;101941.81;5229596;28;20098;-72
2021/12/11 18:40:53;;;;;;;25.87;12.63;;;;;;;4.36;96.22;101940.06;5229052;28;20038;-71
2021/12/11 18:43:24;;;;;;;25.40;11.83;;;;;;;4.32;96.83;101943.63;5229143;28;20429;-72
2021/12/11 18:45:57;;;;;;;26.90;13.40;;;;;;;4.27;96.84;101937.66;5229160;28;20029;-74
2021/12/11 18:48:33;;;;;;;28.10;12.03;;;;;;;4.30;97.47;101945.38;5229078;28;20060;-70
2021/12/11 18:51:08;;;;;;;25.90;12.60;;;;;;;4.34;96.87;101936.69;5228126;28;20664;-71
2021/12/11 18:53:43;;;;;;;31.13;14.50;;;;;;;4.35;97.02;101951.34;5216575;28;20404;-70
2021/12/11 18:56:14;;;;;;;26.17;13.88;;;;;;;4.30;97.14;101940.19;5207742;28;20022;-70
2021/12/11 18:58:48;;;;;;;30.03;13.90;;;;;;;4.30;97.12;101928.94;5206056;28;20029;-70
2021/12/11 19:01:31;;;;;;;25.75;13.55;;;;;;;4.31;97.40;101947.06;5207776;28;20105;-70
2021/12/11 19:04:12;;;;;;;23.37;13.00;;;;;;;4.26;97.80;101938.50;5208714;28;20124;-73
2021/12/11 19:06:45;;;;;;;27.00;12.37;;;;;;;4.29;96.91;101943.69;5207734;28;20082;-73
2021/12/11 19:09:19;;;;;;;26.57;11.97;;;;;;;4.31;97.61;101941.88;5226250;28;20445;-73
2021/12/11 19:11:57;;;;;;;31.87;13.47;;;;;;;4.41;96.80;101942.63;5223576;28;20099;-72
2021/12/11 19:14:31;;;;;;;31.93;13.53;;;;;;;4.36;96.86;101936.66;5222875;28;20022;-71
2021/12/11 19:17:03;;;;;;;31.20;13.43;;;;;;;4.37;97.13;101940.94;5225327;28;20051;-70
2021/12/11 19:19:35;;;;;;;30.80;13.50;;;;;;;4.40;97.34;101940.06;5224148;28;20028;-71
2021/12/11 19:22:11;;;;;;;26.13;14.57;;;;;;;4.30;97.22;101928.94;5223461;28;20025;-72
2021/12/11 19:24:43;;;;;;;31.77;12.70;;;;;;;4.44;96.73;101942.56;5225689;28;20032;-71
2021/12/11 19:27:27;;;;;;;24.90;13.40;;;;;;;4.43;96.56;101947.78;5226506;28;20108;-72
2021/12/11 19:30:18;;;;;;;36.40;12.03;;;;;;;4.41;96.75;101944.34;5224488;28;20033;-73
2021/12/11 19:32:49;;;;;;;30.90;13.57;;;;;;;4.32;96.34;101933.25;5224598;28;20272;-75
2021/12/11 19:35:21;;;;;;;27.50;13.13;;;;;;;4.33;96.61;101941.88;5223966;28;20036;-74
2021/12/11 19:37:52;;;;;;;32.23;13.10;;;;;;;4.30;96.49;101935.00;5226325;28;20025;-75
2021/12/11 19:40:28;;;;;;;33.57;12.60;;;;;;;4.32;96.57;101946.22;5225689;28;20645;-75
2021/12/11 19:43:03;;;;;;;32.07;13.17;;;;;;;4.30;96.83;101942.78;5226028;27;20010;-72
2021/12/11 19:45:36;;;;;;;31.40;13.48;;;;;;;4.07;96.77;101951.75;5222937;27;20078;-72
2021/12/11 19:48:10;;;;;;;29.63;11.93;;;;;;;4.17;96.76;101933.47;5225951;28;20514;-72
2021/12/11 19:50:45;;;;;;;25.25;12.48;;;;;;;4.18;96.80;101936.06;5222517;28;20085;-75
2021/12/11 19:53:19;;;;;;;34.73;13.60;;;;;;;4.10;96.96;101943.09;5225019;28;20026;-74
2021/12/11 19:55:50;;;;;;;28.20;12.88;;;;;;;4.15;96.59;101950.78;5309039;27;20014;-80
2021/12/11 19:58:24;;;;;;;28.67;12.30;;;;;;;4.11;96.69;101945.66;5206322;28;20026;-75
2021/12/11 20:01:03;;;;;;;28.13;11.87;;;;;;;4.11;96.74;101945.66;5216163;28;20022;-76
2021/12/11 20:03:39;;;;;;;25.33;13.23;;;;;;;4.18;96.87;101949.03;5225682;28;20032;-72
2021/12/11 20:06:15;;;;;;;30.23;12.10;;;;;;;4.07;96.59;101943.13;5223894;28;20044;-74
2021/12/11 20:08:56;;;;;;;32.57;12.47;;;;;;;4.15;96.73;101955.97;5226724;28;20050;-75
2021/12/11 20:11:41;;;;;;;30.07;12.00;;;;;;;4.09;96.80;101952.59;5224439;28;20026;-71
2021/12/11 20:14:14;;;;;;;;;;;;;;;4.25;96.59;101957.56;5226236;28;20033;-73
2021/12/11 20:16:48;;;;;;;28.80;12.17;;;;;;;4.16;96.62;101962.88;5225673;28;19957;-72
2021/12/11 20:19:25;;;;;;;33.30;12.87;;;;;;;3.99;96.24;101949.28;5224864;28;20081;-75
2021/12/11 20:22:04;;;;;;;24.90;12.87;;;;;;;3.99;96.83;101966.56;5205662;28;20433;-72
2021/12/11 20:24:38;;;;;;;29.73;12.37;;;;;;;3.94;96.36;101969.25;5205715;28;20018;-71
2021/12/11 20:27:13;;;;;;;29.43;14.10;;;;;;;3.97;96.82;101973.50;5205591;28;20405;-77
2021/12/11 20:29:50;;;;;;;31.17;14.00;;;;;;;3.99;97.08;101977.81;5206214;28;20048;-79
2021/12/11 20:32:23;;;;;;;33.03;14.23;;;;;;;3.95;96.31;101976.13;5205606;28;20061;-78
2021/12/11 20:34:58;;;;;;;41.93;13.67;;;;;;;4.01;96.67;101982.09;5205776;28;20112;-73
2021/12/11 20:37:32;;;;;;;30.60;14.47;;;;;;;3.96;96.78;101982.19;5206499;28;20468;-72
2021/12/11 20:40:13;;;;;;;24.70;12.77;;;;;;;4.01;96.98;101975.19;5206937;28;20127;-72
2021/12/11 20:42:45;;;;;;;30.17;13.93;;;;;;;3.95;96.58;101972.66;5206579;28;20108;-74
2021/12/11 20:45:20;;;;;;;31.57;14.73;;;;;;;4.01;97.12;101975.19;5205031;28;20032;-73
2021/12/11 20:47:52;;;;;;;28.10;12.77;;;;;;;3.99;96.77;101971.75;5205587;28;20026;-77
2021/12/11 20:50:30;;;;;;;29.53;12.40;;;;;;;3.93;97.20;101974.41;5203880;28;20049;-75
2021/12/11 20:53:02;;;;;;;34.40;14.67;;;;;;;3.83;97.58;101979.75;5206924;28;20539;-76
2021/12/11 20:55:37;;;;;;;24.07;12.13;;;;;;;3.98;96.85;101967.44;5206114;28;20041;-74
2021/12/11 20:58:13;;;;;;;27.47;12.90;;;;;;;3.85;96.61;101949.47;5206663;28;20163;-79
2021/12/11 21:00:50;;;;;;;31.30;13.57;;;;;;;3.97;96.96;101965.72;5206006;28;20026;-80
2021/12/11 21:03:23;;;;;;;35.30;13.43;;;;;;;3.89;97.50;101965.00;5206261;28;20549;-76
2021/12/11 21:06:00;;;;;;;30.83;13.95;;;;;;;3.73;97.52;101944.47;5205452;28;20038;-84
2021/12/11 21:08:33;;;;;;;26.60;13.20;;;;;;;3.83;97.29;101953.81;5206581;28;20038;-75
2021/12/11 21:11:09;;;;;;;35.67;13.80;;;;;;;3.79;97.80;101949.53;5206188;28;20135;-82
2021/12/11 21:13:43;;;;;;;33.43;14.53;;;;;;;3.89;97.62;101965.00;5209677;28;20026;-78
2021/12/11 21:16:23;;;;;;;28.50;12.73;;;;;;;3.80;97.86;101965.97;5208873;28;20026;-75
2021/12/11 21:19:06;;;;;;;39.47;15.90;;;;;;;3.95;97.39;101970.06;5208796;28;20034;-72
2021/12/11 21:21:45;;;;;;;29.10;13.03;;;;;;;3.85;97.21;101962.44;5208551;28;20098;-74
2021/12/11 21:24:20;;;;;;;25.43;12.40;;;;;;;3.88;97.50;101961.53;5209720;28;20108;-74
2021/12/11 21:26:55;;;;;;;30.43;13.77;;;;;;;3.93;97.41;101961.47;5208500;28;20029;-75
2021/12/11 21:29:26;;;;;;;28.95;12.88;;;;;;;3.95;97.05;101959.72;5208927;28;20423;-74
2021/12/11 21:32:04;;;;;;;30.53;12.70;;;;;;;4.01;96.97;101964.81;5209451;28;20030;-73
2021/12/11 21:34:38;;;;;;;28.17;13.17;;;;;;;4.04;96.82;101969.97;5310267;27;20520;-73
2021/12/11 21:37:13;;;;;;;24.52;12.73;;;;;;;3.99;97.22;101972.63;5212514;28;20024;-73
2021/12/11 21:39:50;;;;;;;27.83;12.63;;;;;;;4.04;96.66;101974.28;5229316;28;20100;-73
2021/12/11 21:42:35;;;;;;;36.20;14.07;;;;;;;4.01;96.85;101988.16;5227136;28;20018;-73
2021/12/11 21:45:18;;;;;;;31.27;12.10;;;;;;;3.99;96.98;101976.94;5209915;28;20033;-74
2021/12/11 21:48:00;;;;;;;23.33;12.63;;;;;;;3.84;97.33;101976.25;5311409;27;20045;-73
2021/12/11 21:50:42;;;;;;;28.37;13.10;;;;;;;3.94;97.54;101974.44;5207859;28;20687;-75
2021/12/11 21:53:17;;;;;;;30.53;14.07;;;;;;;3.91;97.51;101978.78;5209466;28;20532;-75
2021/12/11 21:55:49;;;;;;;31.00;13.93;;;;;;;3.89;97.30;101975.34;5207286;28;20033;-74
2021/12/11 21:58:26;;;;;;;18.67;11.37;;;;;;;3.89;97.76;101965.00;5208815;28;20022;-74
2021/12/11 22:01:04;;;;;;;32.87;12.57;;;;;;;3.91;97.17;101973.59;5208882;28;20034;-74
2021/12/11 22:03:40;;;;;;;26.90;13.10;;;;;;;3.98;97.36;101970.91;5208618;28;20017;-74
2021/12/11 22:06:17;;;;;;;27.33;12.67;;;;;;;3.94;97.55;101968.38;5208408;28;20049;-74
2021/12/11 22:08:50;;;;;;;26.33;12.67;;;;;;;3.85;97.56;101961.56;5207183;28;20033;-72
2021/12/11 22:11:25;;;;;;;34.43;13.17;;;;;;;3.89;97.39;101970.16;5208152;28;20650;-70
2021/12/11 22:14:01;;;;;;;;;;;;;;;4.07;97.15;101985.47;5209299;28;20380;-71
2021/12/11 22:16:40;;;;;;;25.03;12.23;;;;;;;4.01;97.62;101982.97;5208881;28;20004;-70
2021/12/11 22:19:14;;;;;;;31.40;12.47;;;;;;;3.96;96.94;101971.81;5207922;28;20030;-73
2021/12/11 22:21:47;;;;;;;28.60;12.50;;;;;;;3.98;97.37;101980.41;5208402;28;20037;-73
2021/12/11 22:24:24;;;;;;;26.80;11.43;;;;;;;3.97;97.36;101974.38;5207815;28;20021;-73
2021/12/11 22:27:09;;;;;;;25.67;11.57;;;;;;;4.08;97.55;101982.00;5208389;28;20026;-72
2021/12/11 22:29:45;;;;;;;23.20;12.10;;;;;;;4.07;97.30;101990.66;5208608;28;20022;-72
2021/12/11 22:32:18;;;;;;;28.43;12.70;;;;;;;3.97;97.66;101976.09;5208636;28;20032;-71
2021/12/11 22:34:53;;;;;;;22.77;10.70;;;;;;;4.09;97.56;101990.63;5207978;28;20036;-71
2021/12/11 22:37:29;;;;;;;27.02;11.07;;;;;;;4.06;97.65;101995.84;5206921;28;20618;-71
2021/12/11 22:40:09;;;;;;;22.83;10.13;;;;;;;4.16;97.51;101993.97;5208586;28;20046;-71
2021/12/11 22:42:40;;;;;;;27.33;11.57;;;;;;;4.17;97.32;101998.31;5207974;28;20029;-71
2021/12/11 22:45:17;;;;;;;29.00;12.27;;;;;;;4.12;97.05;101987.97;5208474;28;20087;-69
2021/12/11 22:47:50;;;;;;;24.03;12.13;;;;;;;4.09;97.29;101993.22;5207735;28;20028;-71
2021/12/11 22:50:24;;;;;;;25.80;10.73;;;;;;;4.07;97.10;101995.84;5205650;28;20564;-71
2021/12/11 22:52:59;;;;;;;23.67;11.30;;;;;;;4.02;97.45;101992.44;5208381;28;20132;-72
2021/12/11 22:55:36;;;;;;;31.17;12.50;;;;;;;4.06;97.57;101996.72;5206636;28;20023;-71
2021/12/11 22:58:12;;;;;;;24.30;12.20;;;;;;;3.94;97.76;101989.09;5208344;28;20026;-70
2021/12/11 23:01:21;;;;;;;24.73;12.27;;;;;;;4.04;97.66;101992.44;5207219;28;20026;-74
